Time;durP1;ratioP1;P1;durP2;ratioP2;P2;SDS_P1;SDS_P2;PMS_P1;PMS_P2;Temp;Humidity;BMP_temperature;BMP_pressure;BME280_temperature;BME280_humidity;BME280_pressure;Samples;Min_cycle;Max_cycle;Signal;HPM_P1;HPM_P2
2023/04/21 00:01:19;;;;;;;8.27;6.40;;;12.00;92.30;;;12.10;56.85;94565.44;5076996;28;20970;-62
2023/04/21 00:03:47;;;;;;;6.43;5.80;;;12.00;92.30;;;12.11;56.79;94559.19;5070574;28;20447;-62
2023/04/21 00:06:21;;;;;;;12.30;6.30;;;12.00;92.30;;;12.10;56.93;94561.03;5080348;28;20454;-61
2023/04/21 00:08:48;;;;;;;9.03;5.80;;;12.00;92.20;;;12.11;56.67;94561.84;5073481;28;20451;-57
2023/04/21 00:11:17;;;;;;;9.10;5.33;;;12.00;92.20;;;12.12;56.73;94559.03;5078772;28;20996;-62
2023/04/21 00:13:44;;;;;;;8.73;5.27;;;12.00;92.10;;;12.12;56.65;94561.69;5075055;28;20475;-62
2023/04/21 00:16:12;;;;;;;11.40;5.73;;;12.10;92.20;;;12.12;56.47;94558.22;5078603;28;20501;-58
2023/04/21 00:18:40;;;;;;;8.70;5.60;;;12.00;92.10;;;12.11;57.00;94552.09;5073360;28;20840;-61
2023/04/21 00:21:07;;;;;;;7.30;6.40;;;12.00;92.10;;;12.10;56.63;94555.75;5078804;28;20970;-61
2023/04/21 00:23:35;;;;;;;5.93;5.37;;;12.00;92.10;;;12.09;56.59;94555.91;5074833;28;20482;-62
2023/04/21 00:26:02;;;;;;;8.47;5.97;;;12.00;92.10;;;12.05;56.64;94557.19;5078261;28;20535;-60
2023/04/21 00:28:31;;;;;;;7.90;6.70;;;12.00;92.10;;;12.04;56.69;94559.00;5074062;28;20620;-57
2023/04/21 00:30:58;;;;;;;6.73;5.40;;;12.00;92.10;;;12.02;56.60;94553.88;5078127;28;20880;-58
2023/04/21 00:33:26;;;;;;;6.37;5.17;;;12.00;92.10;;;12.01;56.64;94554.88;5074761;28;21066;-57
2023/04/21 00:35:55;;;;;;;11.23;5.90;;;11.90;92.10;;;12.00;56.25;94555.03;5075518;28;20617;-58
2023/04/21 00:38:23;;;;;;;6.13;5.37;;;11.90;92.00;;;12.00;56.64;94557.66;5076290;28;20532;-57
2023/04/21 00:40:50;;;;;;;13.10;5.67;;;11.90;92.10;;;11.99;56.72;94558.63;5074097;28;20542;-61
2023/04/21 00:43:17;;;;;;;5.83;5.20;;;11.90;92.40;;;11.97;56.58;94556.16;5075784;28;20496;-60
2023/04/21 00:45:47;;;;;;;8.70;6.20;;;11.90;92.10;;;11.96;56.56;94558.94;5074663;28;20454;-57
2023/04/21 00:48:15;;;;;;;7.40;5.40;;;11.90;92.20;;;11.93;56.66;94553.97;5076724;28;20465;-57
2023/04/21 00:50:42;;;;;;;8.93;6.43;;;11.90;92.20;;;11.91;56.71;94562.00;5075143;28;20489;-56
2023/04/21 00:53:09;;;;;;;8.70;5.83;;;11.90;92.20;;;11.89;56.82;94547.34;5067880;28;20555;-56
2023/04/21 00:55:37;;;;;;;9.00;5.93;;;11.80;92.30;;;11.86;56.90;94547.66;5071666;28;20513;-62
2023/04/21 00:58:04;;;;;;;8.20;5.70;;;11.80;92.30;;;11.83;57.23;94546.16;5069768;28;20479;-60
2023/04/21 01:00:32;;;;;;;7.03;6.33;;;11.70;92.30;;;11.77;57.30;94544.16;5071806;28;20515;-61
2023/04/21 01:03:02;;;;;;;6.50;5.50;;;11.70;92.50;;;11.69;57.28;94537.00;5070962;28;20479;-60
2023/04/21 01:05:29;;;;;;;5.20;4.80;;;11.70;92.60;;;11.70;57.32;94538.69;5070580;28;20466;-57
2023/04/21 01:07:56;;;;;;;6.63;6.03;;;11.70;92.60;;;11.66;57.55;94537.31;5071520;28;20477;-57
2023/04/21 01:10:24;;;;;;;5.77;5.17;;;11.60;92.60;;;11.65;57.51;94540.97;5073292;28;20459;-57
2023/04/21 01:12:51;;;;;;;7.70;6.47;;;11.60;92.60;;;11.62;57.59;94543.91;5073097;28;20485;-60
2023/04/21 01:15:18;;;;;;;13.57;6.17;;;11.60;92.80;;;11.60;57.48;94540.56;5073945;28;20486;-56
2023/04/21 01:17:46;;;;;;;9.73;6.50;;;11.50;92.80;;;11.57;57.63;94536.47;5074397;28;20481;-61
2023/04/21 01:20:15;;;;;;;8.50;5.57;;;11.60;92.90;;;11.57;57.63;94544.38;5070166;28;20473;-61
2023/04/21 01:22:44;;;;;;;7.50;6.47;;;11.50;92.90;;;11.57;57.65;94546.16;5068640;28;21014;-61
2023/04/21 01:25:12;;;;;;;11.73;6.37;;;11.50;92.90;;;11.56;57.80;94541.88;5070873;28;20544;-61
2023/04/21 01:27:39;;;;;;;7.70;6.10;;;11.50;93.00;;;11.55;57.74;94540.22;5072421;28;20558;-61
2023/04/21 01:30:08;;;;;;;13.30;5.97;;;11.50;93.00;;;11.54;57.69;94535.91;5070542;28;20455;-61
2023/04/21 01:32:36;;;;;;;6.50;5.73;;;11.50;93.10;;;11.55;57.78;94537.59;5073717;28;20466;-56
2023/04/21 01:35:05;;;;;;;8.73;5.90;;;11.50;93.10;;;11.56;57.93;94544.53;5074609;28;20521;-56
2023/04/21 01:37:33;;;;;;;8.90;5.87;;;11.50;93.10;;;11.55;57.90;94530.50;5068234;28;20467;-57
2023/04/21 01:40:04;;;;;;;10.53;6.77;;;11.50;93.10;;;11.56;57.91;94529.53;5078039;28;20505;-67
2023/04/21 01:42:32;;;;;;;10.17;6.00;;;11.50;93.20;;;11.58;57.97;94530.19;5073493;28;20537;-61
2023/04/21 01:45:00;;;;;;;6.37;5.60;;;11.50;93.20;;;11.59;57.71;94531.03;5068589;28;20468;-57
2023/04/21 01:47:27;;;;;;;7.60;5.50;;;11.50;93.20;;;11.59;57.75;94525.78;5073676;28;20489;-57
2023/04/21 01:49:55;;;;;;;7.33;5.77;;;11.50;93.10;;;11.58;58.04;94524.09;5071373;28;20467;-61
2023/04/21 01:52:22;;;;;;;9.53;6.77;;;11.50;93.20;;;11.60;57.90;94528.25;5071821;28;20488;-63
2023/04/21 01:54:49;;;;;;;8.23;6.03;;;11.60;93.20;;;11.59;57.80;94528.41;5068952;28;20803;-58
2023/04/21 01:57:18;;;;;;;7.10;6.30;;;11.60;93.20;;;11.56;57.69;94513.72;5070527;28;20513;-62
2023/04/21 01:59:45;;;;;;;9.00;5.90;;;11.60;93.20;;;11.57;57.95;94530.34;5071181;28;20458;-56
2023/04/21 02:02:13;;;;;;;6.10;5.60;;;11.60;93.30;;;11.57;57.77;94530.34;5078021;28;20478;-61
2023/04/21 02:04:40;;;;;;;10.80;5.67;;;11.60;93.20;;;11.58;58.11;94534.66;5067581;28;20455;-55
2023/04/21 02:07:07;;;;;;;6.10;5.50;;;11.50;93.30;;;11.58;57.84;94532.00;5073956;28;20569;-56
2023/04/21 02:09:35;;;;;;;12.10;6.83;;;11.50;93.40;;;11.58;57.90;94537.28;5074619;28;20467;-57
2023/04/21 02:12:02;;;;;;;9.97;5.73;;;11.50;93.40;;;11.57;58.03;94536.47;5073211;28;20479;-61
2023/04/21 02:14:31;;;;;;;9.43;6.97;;;11.50;93.40;;;11.56;58.00;94532.16;5079790;28;20463;-56
2023/04/21 02:16:58;;;;;;;13.40;7.23;;;11.50;93.40;;;11.55;58.11;94524.41;5076010;28;20509;-55
2023/04/21 02:19:26;;;;;;;11.53;5.30;;;11.50;93.50;;;11.54;58.21;94528.03;5075107;28;20459;-61
2023/04/21 02:21:53;;;;;;;7.10;6.20;;;11.50;93.50;;;11.54;58.16;94533.28;5077411;28;20485;-57
2023/04/21 02:24:21;;;;;;;8.70;7.17;;;11.50;93.50;;;11.52;58.18;94530.81;5075667;28;20461;-57
2023/04/21 02:26:48;;;;;;;16.87;7.03;;;11.50;93.60;;;11.50;58.11;94531.97;5074207;28;20497;-62
2023/04/21 02:29:15;;;;;;;11.00;8.23;;;11.50;93.60;;;11.47;58.31;94528.63;5075606;28;20462;-58
2023/04/21 02:31:44;;;;;;;12.77;7.20;;;11.50;93.70;;;11.42;58.32;94533.53;5076850;28;20569;-55
2023/04/21 02:34:11;;;;;;;8.50;7.20;;;11.40;93.80;;;11.36;58.52;94531.53;5076210;28;20462;-57
2023/04/21 02:36:39;;;;;;;18.10;11.87;;;11.30;93.80;;;11.31;58.62;94539.06;5074281;28;21046;-57
2023/04/21 02:39:06;;;;;;;20.73;16.73;;;11.30;94.00;;;11.25;58.85;94537.03;5072311;28;20463;-56
2023/04/21 02:41:33;;;;;;;11.40;8.40;;;11.30;94.20;;;11.20;58.87;94537.50;5076584;28;20553;-58
2023/04/21 02:44:01;;;;;;;12.73;9.20;;;11.20;94.20;;;11.16;59.29;94540.59;5072229;28;20454;-62
2023/04/21 02:46:29;;;;;;;13.57;8.23;;;11.20;94.30;;;11.10;59.13;94528.84;5073637;28;20455;-58
2023/04/21 02:48:58;;;;;;;26.80;10.13;;;11.10;94.50;;;11.09;59.29;94537.72;5077797;28;20485;-63
2023/04/21 02:51:25;;;;;;;17.23;10.07;;;11.10;94.50;;;11.07;59.52;94537.84;5076396;28;20454;-57
2023/04/21 02:53:53;;;;;;;16.30;12.07;;;11.10;94.80;;;11.05;59.64;94539.81;5077238;28;20486;-57
2023/04/21 02:56:21;;;;;;;24.27;17.20;;;11.00;94.80;;;11.04;59.42;94539.97;5074839;28;20482;-57
2023/04/21 02:58:48;;;;;;;16.60;10.30;;;11.00;94.90;;;11.04;59.57;94543.44;5078678;28;20873;-57
2023/04/21 03:01:15;;;;;;;12.77;8.13;;;11.00;95.00;;;11.05;59.72;94550.34;5080621;28;20459;-57
2023/04/21 03:03:45;;;;;;;12.40;9.03;;;11.00;95.00;;;11.07;59.57;94543.13;5085383;28;20461;-59
2023/04/21 03:06:14;;;;;;;12.10;8.20;;;11.00;95.00;;;11.06;59.73;94544.13;5095167;28;20454;-62
2023/04/21 03:08:42;;;;;;;19.47;8.90;;;11.00;95.00;;;11.08;59.76;94543.97;5089673;28;20461;-56
2023/04/21 03:11:10;;;;;;;12.53;8.20;;;11.10;95.10;;;11.09;59.59;94545.59;5088967;28;20838;-58
2023/04/21 03:13:38;;;;;;;14.10;9.37;;;11.00;95.00;;;11.08;59.66;94547.41;5091155;28;20470;-61
2023/04/21 03:16:08;;;;;;;8.17;6.97;;;11.10;95.00;;;11.10;59.65;94548.09;5093278;28;20535;-61
2023/04/21 03:18:36;;;;;;;9.80;8.07;;;11.10;95.00;;;11.09;59.85;94545.59;5086799;28;21063;-58
2023/04/21 03:21:03;;;;;;;12.53;9.33;;;11.10;95.10;;;11.10;59.68;94547.28;5071345;28;20571;-60
2023/04/21 03:23:32;;;;;;;17.83;9.60;;;11.10;95.00;;;11.08;59.90;94543.97;5077359;28;20475;-61
2023/04/21 03:26:00;;;;;;;14.73;9.57;;;11.10;95.30;;;11.07;59.98;94543.13;5072128;28;20451;-58
2023/04/21 03:28:27;;;;;;;12.70;9.10;;;11.10;95.80;;;11.07;59.77;94553.66;5073809;28;20478;-60
2023/04/21 03:30:54;;;;;;;11.80;8.80;;;11.00;95.30;;;11.07;59.81;94543.13;5073328;28;20970;-61
2023/04/21 03:33:21;;;;;;;13.70;9.40;;;11.10;95.40;;;11.07;60.01;94551.03;5076092;28;20483;-62
2023/04/21 03:35:49;;;;;;;13.83;8.57;;;11.00;95.60;;;11.07;59.91;94548.38;5072791;28;20540;-61
2023/04/21 03:38:16;;;;;;;10.07;7.90;;;11.00;95.70;;;11.09;59.89;94556.13;5072754;28;20479;-57
2023/04/21 03:40:45;;;;;;;19.27;8.90;;;11.10;95.70;;;11.08;60.08;94559.75;5076634;28;20458;-56
2023/04/21 03:43:13;;;;;;;12.13;7.93;;;11.00;95.70;;;11.06;60.26;94557.28;5073032;28;20489;-57
2023/04/21 03:45:40;;;;;;;11.40;8.47;;;11.00;95.70;;;11.03;60.28;94557.56;5072091;28;20468;-61
2023/04/21 03:48:07;;;;;;;15.33;7.40;;;11.00;95.80;;;11.05;60.16;94563.50;5069714;28;20467;-58
2023/04/21 03:50:35;;;;;;;11.37;6.60;;;11.00;95.70;;;11.07;60.05;94563.38;5075755;28;20445;-62
2023/04/21 03:53:02;;;;;;;12.87;8.93;;;11.00;95.80;;;11.06;60.20;94564.31;5072236;28;20549;-57
2023/04/21 03:55:29;;;;;;;13.57;10.93;;;11.00;95.90;;;11.08;60.92;94565.03;5074737;28;20454;-55
2023/04/21 03:57:58;;;;;;;10.50;8.83;;;11.00;96.10;;;11.10;60.10;94563.88;5075039;28;20528;-61
2023/04/21 04:00:26;;;;;;;12.90;10.00;;;11.10;95.90;;;11.13;60.31;94558.31;5070099;28;20465;-61
2023/04/21 04:02:53;;;;;;;11.57;8.87;;;11.10;96.00;;;11.19;61.15;94561.34;5070399;28;20493;-60
2023/04/21 04:05:21;;;;;;;16.50;8.80;;;11.20;97.20;;;11.26;60.82;94568.47;5078073;28;20451;-62
2023/04/21 04:07:48;;;;;;;10.00;7.90;;;11.20;96.90;;;11.35;60.83;94569.34;5073710;28;20479;-57
2023/04/21 04:10:15;;;;;;;14.40;8.40;;;11.30;97.10;;;11.42;60.55;94569.59;5078953;28;20481;-56
2023/04/21 04:12:43;;;;;;;8.57;7.17;;;11.40;96.70;;;11.48;60.00;94577.72;5078255;28;20466;-60
2023/04/21 04:15:11;;;;;;;11.63;7.80;;;11.40;96.20;;;11.55;59.85;94574.47;5076364;28;20934;-62
2023/04/21 04:17:39;;;;;;;27.87;14.83;;;11.50;96.10;;;11.60;59.71;94574.81;5077142;28;20501;-59
2023/04/21 04:20:08;;;;;;;16.07;9.00;;;11.50;96.00;;;11.68;60.09;94582.81;5073836;28;20476;-62
2023/04/21 04:22:36;;;;;;;11.67;9.10;;;11.60;96.40;;;11.75;59.32;94580.38;5075989;28;20524;-61
2023/04/21 04:25:04;;;;;;;24.50;9.10;;;11.70;96.20;;;11.81;59.77;94588.47;5071173;28;20469;-56
2023/04/21 04:27:32;;;;;;;9.57;7.50;;;11.70;96.00;;;11.88;59.88;94588.69;5073965;28;20877;-64
2023/04/21 04:29:59;;;;;;;15.13;8.63;;;11.80;96.50;;;11.94;59.88;94587.28;5069735;28;20462;-56
2023/04/21 04:32:28;;;;;;;16.20;9.20;;;11.90;96.30;;;12.02;59.83;94589.94;5075082;28;20501;-63
2023/04/21 04:34:55;;;;;;;11.23;8.63;;;11.90;96.40;;;12.05;59.68;94594.91;5071109;28;20466;-56
2023/04/21 04:37:24;;;;;;;13.37;9.13;;;12.00;96.30;;;12.11;59.70;94604.84;5069263;28;20590;-56
2023/04/21 04:39:53;;;;;;;15.50;8.90;;;12.10;96.20;;;12.15;59.74;94605.38;5074480;28;20455;-62
2023/04/21 04:42:20;;;;;;;11.23;9.10;;;12.10;96.40;;;12.19;59.96;94602.25;5071119;28;20471;-57
2023/04/21 04:44:48;;;;;;;14.80;10.43;;;12.10;96.40;;;12.20;59.45;94603.91;5073090;28;20467;-58
2023/04/21 04:47:15;;;;;;;16.80;9.70;;;12.10;96.20;;;12.24;59.82;94606.22;5067836;28;20484;-63
2023/04/21 04:49:44;;;;;;;26.53;10.67;;;12.10;96.20;;;12.24;59.85;94604.44;5071263;28;20809;-62
2023/04/21 04:52:11;;;;;;;17.83;8.17;;;12.20;96.20;;;12.24;60.00;94604.44;5070728;28;21025;-62
2023/04/21 04:54:39;;;;;;;13.10;9.20;;;12.20;96.40;;;12.26;60.20;94601.63;5074490;28;20443;-60
2023/04/21 04:57:06;;;;;;;17.60;9.40;;;12.20;96.70;;;12.27;60.29;94603.28;5075608;28;20504;-65
2023/04/21 04:59:35;;;;;;;20.40;14.27;;;12.20;96.70;;;12.32;59.99;94606.28;5074403;28;20459;-56
2023/04/21 05:02:02;;;;;;;23.10;11.40;;;12.20;96.40;;;12.34;59.86;94612.22;5073958;28;20467;-63
2023/04/21 05:04:30;;;;;;;18.43;10.70;;;12.20;96.60;;;12.37;60.24;94614.53;5074551;28;20443;-58
2023/04/21 05:06:59;;;;;;;19.80;10.10;;;12.30;96.70;;;12.38;60.45;94610.94;5071706;28;20585;-61
2023/04/21 05:09:26;;;;;;;13.60;9.17;;;12.30;96.70;;;12.42;60.41;94611.44;5071533;28;20455;-61
2023/04/21 05:11:54;;;;;;;23.40;9.17;;;12.30;96.90;;;12.44;60.52;94614.72;5075273;28;20493;-62
2023/04/21 05:14:21;;;;;;;11.83;8.40;;;12.40;96.90;;;12.48;59.69;94616.91;5069452;28;20455;-57
2023/04/21 05:16:48;;;;;;;15.63;9.30;;;12.40;96.40;;;12.50;60.53;94617.59;5070999;28;20840;-61
2023/04/21 05:19:17;;;;;;;12.30;8.47;;;12.40;96.80;;;12.55;60.16;94617.94;5071856;28;21029;-63
2023/04/21 05:21:44;;;;;;;24.23;9.13;;;12.50;97.00;;;12.59;60.37;94610.50;5073749;28;20486;-65
2023/04/21 05:24:13;;;;;;;13.07;9.30;;;12.50;96.80;;;12.68;60.71;94616.66;5072143;28;20463;-65
2023/04/21 05:26:41;;;;;;;20.33;11.60;;;12.50;97.00;;;12.74;60.38;94611.56;5072048;28;20507;-59
2023/04/21 05:29:08;;;;;;;12.03;8.43;;;12.60;97.00;;;12.82;60.11;94608.13;5069005;28;20461;-63
2023/04/21 05:31:37;;;;;;;14.90;8.30;;;12.70;97.00;;;12.89;60.00;94617.06;5069367;28;20485;-64
2023/04/21 05:34:05;;;;;;;18.27;8.63;;;12.80;96.80;;;13.01;59.79;94603.56;5069892;28;20457;-62
2023/04/21 05:36:32;;;;;;;11.70;8.03;;;12.90;97.00;;;13.17;59.87;94614.16;5078702;28;20488;-58
2023/04/21 05:39:01;;;;;;;15.10;8.10;;;13.00;96.90;;;13.38;59.67;94607.63;5073275;28;20522;-63
2023/04/21 05:41:30;;;;;;;11.53;7.97;;;13.20;96.90;;;13.63;58.84;94611.94;5079238;28;20945;-64
2023/04/21 05:43:58;;;;;;;15.73;9.50;;;13.40;96.30;;;13.85;58.66;94609.63;5077299;28;20446;-57
2023/04/21 05:46:25;;;;;;;17.67;8.60;;;13.60;96.20;;;14.09;58.17;94606.13;5077183;28;20528;-64
2023/04/21 05:48:52;;;;;;;20.03;11.07;;;13.80;95.70;;;14.34;57.94;94616.66;5083405;28;20448;-63
2023/04/21 05:51:20;;;;;;;11.73;7.43;;;14.10;95.80;;;14.58;57.35;94617.56;5079801;28;20549;-62
2023/04/21 05:53:47;;;;;;;12.57;7.27;;;14.30;95.20;;;14.81;57.08;94605.28;5076960;28;20447;-57
2023/04/21 05:56:16;;;;;;;10.73;7.20;;;14.50;95.10;;;15.04;56.61;94607.97;5074602;28;20487;-64
2023/04/21 05:58:45;;;;;;;12.50;7.80;;;14.70;94.80;;;15.27;56.11;94612.47;5074471;28;21758;-58
2023/04/21 06:01:14;;;;;;;11.73;7.20;;;15.00;94.60;;;15.50;56.09;94606.38;5082856;28;20446;-57
2023/04/21 06:03:41;;;;;;;13.23;7.23;;;15.20;94.60;;;15.73;55.67;94604.53;5077521;28;20478;-58
2023/04/21 06:06:10;;;;;;;7.97;6.00;;;15.40;94.00;;;15.97;54.46;94600.03;5082413;28;20468;-57
2023/04/21 06:08:37;;;;;;;9.67;6.70;;;15.60;93.10;;;16.15;55.05;94604.22;5070556;28;21055;-64
2023/04/21 06:11:05;;;;;;;9.10;7.43;;;15.80;93.70;;;16.38;54.39;94597.00;5078754;28;20541;-64
2023/04/21 06:13:32;;;;;;;11.43;6.33;;;16.00;93.30;;;16.59;53.78;94596.28;5078020;28;20478;-58
2023/04/21 06:16:01;;;;;;;13.90;6.87;;;16.30;92.70;;;16.80;53.03;94592.84;5073247;28;20453;-59
2023/04/21 06:18:29;;;;;;;10.90;6.70;;;16.50;92.20;;;17.01;52.76;94594.78;5074915;28;20480;-64
2023/04/21 06:20:56;;;;;;;9.53;7.60;;;16.70;91.80;;;17.20;52.85;94598.69;5080691;28;20467;-64
2023/04/21 06:23:24;;;;;;;10.50;7.00;;;16.90;91.70;;;17.39;52.42;94604.41;5079194;28;20527;-65
2023/04/21 06:26:03;;;;;;;7.73;6.90;;;17.10;91.40;;;17.53;51.27;94600.84;5076576;28;20978;-64
2023/04/21 06:28:31;;;;;;;7.37;6.57;;;17.20;90.30;;;17.63;51.29;94607.69;5078769;28;21227;-58
2023/04/21 06:31:01;;;;;;;12.93;7.43;;;17.30;90.00;;;17.71;51.04;94602.28;5077212;28;20490;-64
2023/04/21 06:33:28;;;;;;;8.20;7.17;;;17.40;89.00;;;17.75;50.82;94600.84;5077181;28;20917;-64
2023/04/21 06:35:56;;;;;;;8.93;6.93;;;17.50;88.40;;;17.76;50.41;94599.84;5076249;28;20488;-58
2023/04/21 06:38:23;;;;;;;20.13;6.90;;;17.50;87.70;;;17.83;49.95;94599.91;5077303;28;20494;-58
2023/04/21 06:40:51;;;;;;;10.33;6.73;;;17.50;86.10;;;17.93;49.94;94592.47;5075147;28;20455;-67
2023/04/21 06:43:18;;;;;;;11.30;7.27;;;17.60;86.30;;;18.01;50.48;94591.50;5075337;28;20562;-65
2023/04/21 06:45:46;;;;;;;7.80;6.87;;;17.70;86.90;;;18.13;50.45;94589.16;5078847;28;20875;-58
2023/04/21 06:48:14;;;;;;;15.30;7.70;;;17.80;87.50;;;18.23;49.00;94587.78;5066135;28;20473;-58
2023/04/21 06:50:43;;;;;;;8.87;7.23;;;17.90;83.90;;;18.35;50.03;94584.59;5075592;28;20474;-64
2023/04/21 06:53:11;;;;;;;11.77;7.13;;;18.00;85.40;;;18.50;48.24;94584.44;5075664;28;21333;-57
2023/04/21 06:55:38;;;;;;;7.67;5.70;;;18.20;82.90;;;18.60;49.36;94591.06;5070398;28;20658;-58
2023/04/21 06:58:06;;;;;;;8.97;6.90;;;18.30;84.40;;;18.74;48.64;94583.16;5075092;28;20524;-62
2023/04/21 07:00:33;;;;;;;8.80;6.30;;;18.40;83.20;;;18.80;48.33;94587.69;5075172;28;20467;-63
2023/04/21 07:03:00;;;;;;;9.90;6.00;;;18.50;83.20;;;18.88;47.35;94584.88;5067232;28;20474;-62
2023/04/21 07:05:29;;;;;;;10.03;6.97;;;18.60;80.40;;;18.94;46.69;94584.09;5068599;28;20479;-56
2023/04/21 07:07:58;;;;;;;17.83;6.57;;;18.60;79.30;;;19.00;47.64;94579.81;5069682;28;20600;-56
2023/04/21 07:10:26;;;;;;;11.37;6.53;;;18.70;80.30;;;19.14;48.23;94586.03;5077485;28;20580;-57
2023/04/21 07:12:54;;;;;;;12.40;6.80;;;18.80;80.70;;;19.40;47.79;94590.63;5068285;28;20501;-57
2023/04/21 07:15:21;;;;;;;11.33;5.77;;;19.00;80.70;;;19.59;45.57;94581.00;5076073;28;20550;-60
2023/04/21 07:17:48;;;;;;;7.57;6.13;;;19.20;77.50;;;19.60;46.83;94585.31;5079665;28;20506;-55
2023/04/21 07:20:17;;;;;;;8.60;7.37;;;19.30;77.90;;;19.54;47.09;94586.13;5074871;28;20483;-56
2023/04/21 07:22:46;;;;;;;18.40;5.37;;;19.30;78.00;;;19.45;47.03;94582.00;5076660;28;20569;-55
2023/04/21 07:25:13;;;;;;;10.93;7.87;;;19.20;77.30;;;19.42;47.18;94577.06;5073887;28;21033;-59
2023/04/21 07:27:41;;;;;;;9.43;5.77;;;19.10;77.60;;;19.52;46.45;94583.66;5073606;28;21018;-56
2023/04/21 07:30:09;;;;;;;7.73;5.83;;;19.20;76.80;;;19.76;46.06;94581.44;5072946;28;20496;-60
2023/04/21 07:32:37;;;;;;;12.00;5.90;;;19.40;76.30;;;20.06;46.01;94581.06;5076131;28;20858;-61
2023/04/21 07:35:06;;;;;;;10.03;5.57;;;19.70;76.60;;;20.45;45.39;94578.56;5074026;28;20471;-60
2023/04/21 07:37:33;;;;;;;6.73;6.10;;;20.00;74.60;;;20.82;45.10;94586.94;5078144;28;20497;-60
2023/04/21 07:40:02;;;;;;;9.00;4.87;;;20.40;75.40;;;21.19;44.76;94576.50;5070771;28;20468;-55
2023/04/21 07:42:30;;;;;;;14.37;7.87;;;20.70;74.00;;;21.57;43.72;94586.44;5077359;28;20476;-56
2023/04/21 07:44:59;;;;;;;10.27;6.57;;;21.10;72.20;;;21.62;42.96;94583.94;5078239;28;20442;-60
2023/04/21 07:47:27;;;;;;;9.60;5.90;;;21.30;71.00;;;21.60;42.89;94589.50;5074198;28;20471;-57
2023/04/21 07:49:54;;;;;;;9.63;5.80;;;21.30;69.30;;;21.78;42.17;94590.63;5077584;28;20567;-60
2023/04/21 07:52:21;;;;;;;6.70;5.00;;;21.40;68.10;;;21.95;42.28;94580.19;5075854;28;20470;-57
2023/04/21 07:54:49;;;;;;;11.67;5.53;;;21.50;67.40;;;21.96;41.70;94584.53;5079390;28;20470;-56
2023/04/21 07:57:18;;;;;;;10.13;5.70;;;21.60;66.80;;;21.99;40.63;94582.22;5078051;28;20494;-61
2023/04/21 07:59:46;;;;;;;10.27;6.27;;;21.70;64.90;;;22.06;41.60;94584.88;5075436;28;20480;-56
2023/04/21 08:02:13;;;;;;;6.93;5.03;;;21.70;66.50;;;21.99;41.44;94590.25;5078671;28;20474;-60
2023/04/21 08:04:40;;;;;;;8.50;5.53;;;21.70;66.00;;;21.81;41.59;94595.53;5073284;28;20477;-60
2023/04/21 08:07:09;;;;;;;6.27;4.83;;;21.60;65.40;;;21.61;41.33;94585.78;5072640;28;20481;-57
2023/04/21 08:09:36;;;;;;;8.40;4.50;;;21.40;64.50;;;21.39;41.96;94590.59;5070616;28;20483;-56
2023/04/21 08:12:04;;;;;;;5.23;4.73;;;21.20;65.70;;;21.10;42.26;94584.78;5065046;28;20474;-60
2023/04/21 08:14:33;;;;;;;5.20;4.70;;;20.90;65.30;;;20.86;42.41;94590.84;5067981;28;20473;-57
2023/04/21 08:17:00;;;;;;;8.00;4.80;;;20.70;65.40;;;20.56;42.73;94596.66;5070527;28;20490;-56
2023/04/21 08:19:28;;;;;;;12.17;5.00;;;20.40;65.40;;;20.35;42.16;94587.81;5075889;28;20465;-57
2023/04/21 08:21:56;;;;;;;7.57;4.97;;;20.20;64.70;;;20.20;43.50;94581.88;5076056;28;20497;-62
2023/04/21 08:24:23;;;;;;;5.90;4.57;;;20.00;66.70;;;20.07;43.02;94569.38;5077319;28;20469;-55
2023/04/21 08:26:51;;;;;;;7.07;4.50;;;19.80;66.00;;;20.02;43.37;94572.66;5071550;28;20525;-55
2023/04/21 08:29:18;;;;;;;4.57;4.17;;;19.80;67.20;;;20.01;43.30;94575.53;5070140;28;20813;-58
2023/04/21 08:31:47;;;;;;;7.60;4.50;;;19.80;66.40;;;19.97;43.32;94575.13;5074737;28;20530;-56
2023/04/21 08:34:14;;;;;;;7.77;4.90;;;19.70;66.40;;;19.92;43.03;94569.56;5074075;28;20470;-57
2023/04/21 08:36:43;;;;;;;7.43;4.53;;;19.70;66.30;;;19.88;42.91;94571.03;5074692;28;20557;-59
2023/04/21 08:39:12;;;;;;;9.87;4.70;;;19.60;65.90;;;19.91;43.59;94567.94;5074691;28;20844;-60
2023/04/21 08:41:40;;;;;;;18.03;4.90;;;19.70;66.30;;;20.21;43.31;94554.97;5069518;28;20482;-55
2023/04/21 08:44:10;;;;;;;5.63;4.90;;;19.90;66.70;;;20.63;43.13;94568.03;5070018;28;20528;-61
2023/04/21 08:46:38;;;;;;;4.83;4.43;;;20.30;67.00;;;21.08;42.24;94560.09;5074339;28;20578;-56
2023/04/21 08:49:07;;;;;;;7.70;4.63;;;20.60;65.60;;;21.50;41.78;94562.38;5074782;28;20484;-59
2023/04/21 08:51:34;;;;;;;7.43;4.90;;;21.00;65.10;;;21.97;39.19;94562.06;5070364;28;20483;-62
2023/04/21 08:54:02;;;;;;;10.80;4.53;;;21.50;62.00;;;22.37;40.87;94564.44;5078014;28;20491;-58
2023/04/21 08:56:29;;;;;;;5.13;4.30;;;21.90;64.20;;;22.75;39.42;94563.41;5072363;28;20479;-57
2023/04/21 08:58:57;;;;;;;13.43;8.20;;;22.30;62.10;;;23.06;40.40;94564.31;5074568;28;20524;-62
2023/04/21 09:01:24;;;;;;;8.00;4.90;;;22.60;62.70;;;23.33;38.60;94548.72;5067912;28;20466;-58
2023/04/21 09:03:51;;;;;;;7.63;4.57;;;22.90;59.00;;;23.51;39.14;94555.88;5071074;28;20513;-58
2023/04/21 09:06:20;;;;;;;9.93;4.30;;;23.10;60.20;;;23.69;38.02;94554.22;5072765;28;20455;-56
2023/04/21 09:08:54;;;;;;;7.03;4.43;;;23.30;58.20;;;23.91;38.19;94549.97;5071231;28;20478;-58
2023/04/21 09:11:22;;;;;;;11.27;6.10;;;23.50;58.80;;;24.17;38.10;94550.59;5075174;28;20466;-61
2023/04/21 09:13:49;;;;;;;6.13;3.60;;;23.70;59.40;;;24.38;37.14;94546.47;5063338;28;20581;-56
2023/04/21 09:16:19;;;;;;;5.13;4.00;;;23.90;57.80;;;24.63;36.35;94532.84;5074568;28;20534;-57
2023/04/21 09:18:46;;;;;;;6.80;4.23;;;24.20;56.20;;;24.79;35.57;94528.59;5070971;28;21045;-60
2023/04/21 09:21:15;;;;;;;12.40;4.20;;;24.40;54.70;;;24.85;35.36;94533.03;5075318;28;20551;-57
2023/04/21 09:23:45;;;;;;;6.40;3.83;;;24.50;54.80;;;24.95;35.45;94527.03;5078893;28;20582;-57
2023/04/21 09:26:12;;;;;;;9.03;3.83;;;24.60;54.40;;;25.02;35.30;94521.53;5076239;28;20479;-63
2023/04/21 09:28:43;;;;;;;8.47;3.57;;;24.70;53.90;;;24.99;34.22;94516.63;5080003;28;20493;-56
2023/04/21 09:31:15;;;;;;;4.17;3.77;;;24.60;52.50;;;24.99;34.44;94522.00;5072043;28;20541;-58
2023/04/21 09:33:47;;;;;;;10.33;4.10;;;24.60;52.90;;;24.98;35.71;94525.75;5074406;28;20481;-58
2023/04/21 09:36:21;;;;;;;7.60;5.20;;;24.60;53.70;;;24.99;35.01;94520.13;5071033;28;20466;-56
2023/04/21 09:38:56;;;;;;;12.80;5.10;;;24.60;53.90;;;25.19;34.82;94516.19;5075006;28;21523;-61
2023/04/21 09:41:23;;;;;;;10.50;4.97;;;24.80;54.10;;;25.33;35.50;94511.38;5077979;28;20564;-61
2023/04/21 09:43:51;;;;;;;6.30;5.00;;;24.90;53.70;;;25.40;34.50;94512.84;5079241;28;20471;-57
2023/04/21 09:46:19;;;;;;;7.13;4.60;;;25.00;52.20;;;25.32;33.94;94502.47;5074635;28;21037;-56
2023/04/21 09:48:47;;;;;;;3.70;3.17;;;24.90;50.80;;;25.03;34.88;94505.13;5072030;28;20481;-59
2023/04/21 09:51:16;;;;;;;12.23;4.67;;;24.80;52.50;;;24.68;34.36;94494.47;5075294;28;20486;-60
2023/04/21 09:53:44;;;;;;;6.37;5.40;;;24.50;50.70;;;24.38;35.58;94499.97;5074618;28;20454;-56
2023/04/21 09:56:14;;;;;;;5.60;4.80;;;24.20;52.60;;;24.20;35.67;94501.75;5078219;28;20473;-58
2023/04/21 09:58:46;;;;;;;7.53;4.80;;;24.00;52.90;;;24.00;36.12;94504.78;5075175;28;20517;-56
2023/04/21 10:01:13;;;;;;;9.97;4.73;;;23.80;52.90;;;23.69;34.91;94504.00;5078078;28;20482;-59
2023/04/21 10:03:41;;;;;;;6.37;4.50;;;23.50;51.20;;;23.24;34.93;94501.78;5076757;28;20489;-61
2023/04/21 10:06:09;;;;;;;4.67;4.20;;;23.10;51.60;;;22.72;35.29;94494.16;5071329;28;20536;-60
2023/04/21 10:08:36;;;;;;;9.33;4.40;;;22.70;52.10;;;22.16;35.78;94490.59;5074283;28;20470;-58
2023/04/21 10:11:04;;;;;;;5.07;3.73;;;22.10;52.60;;;21.62;37.17;94500.97;5071849;28;20458;-61
2023/04/21 10:13:33;;;;;;;5.77;4.80;;;21.60;53.80;;;21.20;37.78;94504.09;5075243;28;20488;-60
2023/04/21 10:16:04;;;;;;;8.03;4.20;;;21.10;54.50;;;20.89;38.69;94497.66;5073179;28;21053;-57
2023/04/21 10:18:31;;;;;;;6.13;5.30;;;20.80;55.50;;;20.72;39.11;94496.50;5071376;28;20495;-61